Katl taf.

Katl taf. Things To Know About Katl taf.

mmun 260246z 12005kt 7sm skc 27/25 a2995 rmk slp143 52013 923 ci taf mmun 252335z 2600/2700 16012kt p6sm sct015 bkn250 tx32/2619z tn21/2612z tempo 2600/2604 bkn015cb fm260500 00000kt p6sm sct015 ... katl 260252z 01009kt 10sm bkn200 bkn250 27/12 a3008 rmk ao2 slp175 t02670117 51014 $ katl 260208z 2602/2706 33006kt p6sm few120 …NOTE: LAMP data beyond the time of the TAF data is denoted as LAMP in Type and colored magenta. Raw TAF KJFK 091952Z 0920/1024 23014G20KT P6SM BKN060 FM092200 24012KT P6SM SCT060 FM100300 24007KT P6SM BKN050 FM101600 23010KT P6SM SCT060 Raw METAR KJFK 092251Z 25010KT 10SM FEW055 SCT075 14/05 A2979 RMK AO2 SLP087 T01390050 KJFK 092151Z 24011KT 10SM FEW055 SCT090 SCT250 14/04 A2977 RMK AO2 ...katl 121952z 07016kt 10sm bkn023 ovc030 20/14 a2980 rmk ao2 slp086 t02000139 $ katl 121944z 1220/1324 08012g21kt p6sm bkn025 fm130000 08009kt p6sm sct025 bkn040 fm130700 07008kt p6sm vcsh sct008 bkn012 fm131300 08011kt 6sm -radz br bkn008 fm132200 08008kt 5sm -radz br ovc006Updated at 2326 UTC 09 Oct 2023. NOTE: LAMP data beyond the time of the TAF data is denoted as LAMP in Type and colored magenta. For situational awareness. Not to be used for flight planning purposes. Aviation Weather Center Homepage provides comprehensive user-friendly aviation weather Text products and graphics.

METAR KATL 100052Z 25003KT 10SM FEW030 SCT200 SCT250 25/19 A3002 RMK AO2 SLP155 T02500194. ... KFTY - Fulton County Executive/Charlie Brown Field (9.7 NM) METAR TAF KHMP - Atlanta Speedway Airport (16 NM) METAR KPDK - Dekalb-Peachtree Airport (16 NM) METAR TAF KMGE - Dobbins Air Reserve Base (17 …

KATL - Atlanta/Hartsfield I, GA, US. Issued at 1720 UTC 25 Sep 2023. Updated at 1933 UTC 25 Sep 2023. Potential Impact: None: Slight: Moderate: High: Time <<26/08Z 26/09Z 26/10Z 26/11Z 26/12Z 26/13Z ... NOTE: LAMP data beyond the time of the TAF data is denoted as LAMP in Type and colored magenta.NOTE: LAMP data beyond the time of the TAF data is denoted as LAMP in Type and colored magenta. Raw TAF KATL 120542Z 1206/1312 09012KT 5SM -RA BR SCT007 OVC010 TEMPO 1209/1213 4SM RA BR OVC005 FM121300 08014G24KT P6SM SCT005 OVC008 FM121700 08012KT P6SM BKN020 FM131000 08009KT P6SM VCSH SCT008 BKN012 Raw METAR KATL 120530Z 11011G19KT 4SM RA BR BKN008 OVC047 16/14 A2988 RMK AO2 P0025 T01560139 ...

METAR · TAF · PIREP · AIRMET/SIGMET Charts · Airspace Fixes · Max-Trax. HARTSFIELD - JACKSON ATLANTA INTERNATIONAL (KATL) Communications. ATLANTA, GA. Summary ...NOTE: LAMP data beyond the time of the TAF data is denoted as LAMP in Type and colored magenta. Raw TAF. KBTR 181120Z 1812/1912 03005KT P6SM SKC. Raw METAR. KBTR 181153Z 00000KT 10SM CLR 18/14 A3001 RMK AO2 SLP161 T01780139 10211 20172 53009. KBTR 181053Z 03003KT 10SM CLR 18/14 A2999 RMK AO2 SLP155 T01780144. KBTR 180953Z AUTO 00000KT 10SM CLR ...rksi 212230z 05003kt 010v080 cavok 18/16 q1016 nosig taf rksi 211700z 2118/2224 02006kt cavok tn17/2121z tx25/2205z tn18/2221z becmg 2201/2202 08005kt tempo 2202/2205 32006kt becmg 2205/2207 29007kt becmg 2215/2217 …Format: Raw Decoded Include METAR. Data at: 1011 UTC 09 Oct 2023. RCTP 091000Z 04016G26KT 360V070 9999 -RA SCT007 BKN009 BKN015 24/23 Q1016 WS R05R NOSIG RMK A3001. TAF RCTP 090500Z 0906/1012 04020KT 9999 SCT006 BKN008 BKN015. TEMPO 0906/0912 SCT007 BKN012 BKN025. TEMPO 0918/0924 5000 RA SCT003 BKN005 BKN012.vhhh 270530z 20010kt 170v230 9999 vcsh few015 sct030 32/25 q1003 nosig taf vhhh 270500z 2706/2812 vrb05kt 9999 few020 tx33/2706z tx32/2806z tn28/2722z tempo 2706/2709 26010kt 4000 shra few010cb sct020 tempo 2709/2718 12010kt tempo 2723/2805 3500 tsra shra few010cb sct020 tempo 2803/2809 26010kt. vmmc ...

Oct 8, 2023 · TAF for: KATL (Atlanta/Hartsfield I, GA, US) issued at 1559 UTC 08 Oct 2023: Text: KATL 081559Z 0816/0918 33013KT P6SM FEW200 : Forecast period: 1600 to 2300 UTC 08 October 2023: Forecast type: FROM: standard forecast or significant change: Winds: from the NNW (330 degrees) at 15 MPH (13 knots; 6.7 m/s) Visibility: 6 or more sm (10+ km) Ceiling:

KATL TAF. Issued: 2:30 AM PDT. (in 9 hours). Tomorrow 3:00 AM - 8:00 AM PDT. Vis ... TAFs from nearby airports: KFTY TAF. 10 nm NW. Issued: 10:21 PM PDT. (in 5 ...

> Airports > KATL > METAR TAF. Airports. Home. World Map. Airport list. Australia ... KATL 101952Z 1020/1124 21013KT P6SM FEW050 SCT150 SCT250 FM110200 24004KT P6SM ... METAR Home Plot Data Board Info IDs: Format: Raw Decoded Include TAF Data at: 2212 UTC 12 Oct 2023 Page loaded: 22:12 UTC | 03:12 PM Pacific | 04:12 PM Mountain | 05:12 PM Central | 06:12 PM Eastern Aviation Weather Center Homepage provides comprehensive user-friendly aviation weather Text products and graphics.Impacts TAF Board. TAF Home. Plot. Data. Board. Info. For situational awareness. Not to be used for flight planning purposes. IDs: KATL - Atlanta/Hartsfield I, GA, US. Issued at 1957 UTC 11 Feb 2023. Updated at 2032 UTC 11 Feb 2023. Potential Impact: None: Slight: Moderate: High: Time <<12/21Z 12/22Z 12/23Z 13/00Z 13/01ZKATL/ATL Weather for Hartsfield-Jackson Intl Airport - (Atlanta, GA) ... RemarksRain, Mist. Recent ATL METAR history. Date, Time (EDT), Flight Rules ...[Controlled] KATL,ATL (Atlanta,Georgia,US) Concrete 3,042m. Information on this website may be inaccurate or outdated and is intended for Flight Simulator navigating or for Pre-flight Training purposes only!KLAL 211235Z AUTO 01005KT 5SM BR OVC002 22/22 A3001 RMK AO2 T02220222. METAR Board. Radar Display. Forecast Discussion. For situational awareness. Not to be used for flight planning purposes. Aviation Weather Center Homepage provides comprehensive user-friendly aviation weather Text products and graphics.

KATL - Atlanta/Hartsfield I, GA, US Issued at 0733 UTC 25 Aug 2023 Updated at 0817 UTC 25 Aug 2023 Potential Impact None Slight Moderate High NOTE: LAMP data beyond the time of the TAF data is denoted as LAMP in Type and colored magenta. Raw TAF KATL 250733Z 2508/2612 30008KT P6SM BKN170 FM251600 31009KT P6SM SCT040 FM260100 33005KT P6SM FEW250Below are listed examples for each of the data API scripts. You can also use the API builder to construct your own requests. METARs. TAFs. PIREPs. AIRMET/SIGMET. Intl SIGMET. G-AIRMET. OCONUS FAs.cyvr 230500z 09005kt 15sm few100 sct120 15/09 a2987 rmk ac1ac2 slp116 taf cyvr 230240z 2303/2406 vrb03kt p6sm sct100 sct240 becmg 2304/2306 10010kt fm230800 10010kt p6sm few050 bkn200 fm231200 10010kt p6sm sct050 bkn100 tempo 2312/2317 bkn050 fm231700 13012kt p6sm sct020 bkn060 tempo 2317/2320 6sm -shra br bkn020 fm232000 11012kt …METAR text: KIAH 091653Z 16007KT 10SM FEW180 FEW250 26/09 A3001 RMK AO2 SLP160 T02560094. Conditions at: KIAH (HOUSTON/INTNL , TX, US) observed 1653 UTC 09 October 2023. Temperature: 25.6°C (78°F) Dewpoint: 9.4°C (49°F) [RH = 36%] Pressure (altimeter):Forecast. TAF: KATL 011720Z 0118/0224 08010KT P6SM SCT040 FM020000 08004KT P6SM FEW250 FM021500 08008KT P6SM SCT040. Weather observations and forecasts of more than 4000 airports (METAR and TAF reports). The available stations are represented by yellow and red dots on the map. Hover mouse over dot to see the name of the station. > Airports > KATL > METAR TAF. Airports. Home. World Map. Airport list. Australia ... KATL 101952Z 1020/1124 21013KT P6SM FEW050 SCT150 SCT250 FM110200 24004KT P6SM ... ybbn 180930z 05008kt 9999 few035 19/12 q1023 taf ybbn 180812z 1809/1912 04005kt cavok fm181400 20005kt 9999 bkn035 fm190000 06010kt 9999 few035 fm190900 05005kt cavok. ... katl 180852z 31007kt 10sm clr 17/14 a2996 rmk ao2 slp138 t01720144 58002 $ katl 180928z 1809/1912 31007kt p6sm skc fm181700 32010kt p6sm skc fm190000 …

NOTE: LAMP data beyond the time of the TAF data is denoted as LAMP in Type and colored magenta. Raw TAF KATL 230333Z 2304/2406 28004KT P6SM FEW090 SCT200 FM231600 30006KT P6SM SCT040 FM240200 33005KT P6SM SCT150 METAR Board Radar Display Forecast Discussion

Updated at 1735 UTC 03 Oct 2023. NOTE: LAMP data beyond the time of the TAF data is denoted as LAMP in Type and colored magenta. For situational awareness. Not to be used for flight planning purposes. Aviation Weather Center Homepage provides comprehensive user-friendly aviation weather Text products and graphics. METAR KATL 200452Z 13004KT 10SM BKN029 19/17 A3011 RMK AO2 SLP188 T01940167 402280161. The wind is from direction 130° with a speed of 4 kt. Visibility is 10 mi. The ceiling, broken or more, is 2,900 …KATL 120752Z 09010KT 8SM -RA BKN007 BKN015 OVC050 16/14 A2980 RMK AO2 SLP084 CIG 006V009 P0004 T01560139 $ Conditions at: KATL (ATLANTA , GA, US) observed 0752 UTC 12 October 2023 Temperature: 15.6°C (60°F) Dewpoint: 13.9°C (57°F) [RH = 90%] Pressure (altimeter): 29.80 inches Hg (1009.2 mb) ...ybbn 180930z 05008kt 9999 few035 19/12 q1023 taf ybbn 180812z 1809/1912 04005kt cavok fm181400 20005kt 9999 bkn035 fm190000 06010kt 9999 few035 fm190900 05005kt cavok. ... katl 180852z 31007kt 10sm clr 17/14 a2996 rmk ao2 slp138 t01720144 58002 $ katl 180928z 1809/1912 31007kt p6sm skc fm181700 32010kt p6sm skc fm190000 …1554 users online KATL Hartsfield - Jackson Atlanta International Airport Atlanta, Georgia, USA GOING TO ATLANTA? Reserve a Hotel Room FAA INFORMATION EFFECTIVE 05 OCTOBER 2023 Location Airport Operations Airport CommunicationsTAF ; NOTAM ; History ; Airport ; Statistics ; Livestream Show on map Embed New ... KATL B) 2309120954 E) ATL TWY SG, SJ, TWY SC BTN TWY SJ1 AND TWY SG CLSD CANCELED September 12, 2023 05:54 - September 15, 2023 05:54 LT KATL · A6496/23. Active. 0.4 NM 6h.KATL - Atlanta/Hartsfield I, GA, US Issued at 0348 UTC 10 Oct 2023 Updated at 0501 UTC 10 Oct 2023 Potential Impact None Slight Moderate High NOTE: LAMP data beyond the time of the TAF data is denoted as LAMP in Type and colored magenta. Raw TAF KATL 100348Z 1004/1106 23006KT P6SM SKC FM101800 24012KT P6SM SCT250 FM110000 24006KT P6SM SCT250Impacts TAF Board. TAF Home. Plot. Data. Board. Info. For situational awareness. Not to be used for flight planning purposes. IDs: KATL - Atlanta/Hartsfield I, GA, US. Issued at 0931 UTC 01 Sep 2023. Updated at 1107 UTC 01 Sep 2023. Potential Impact: None: Slight: Moderate: High: Time 1052Z 01/04Z 01/05Z 01/06Z 01/07Z 01/08ZNOTE: LAMP data beyond the time of the TAF data is denoted as LAMP in Type and colored magenta. Raw TAF KATL 120542Z 1206/1312 09012KT 5SM -RA BR SCT007 OVC010 TEMPO 1209/1213 4SM RA BR OVC005 FM121300 08014G24KT P6SM SCT005 OVC008 FM121700 08012KT P6SM BKN020 FM131000 08009KT P6SM VCSH SCT008 BKN012 Raw METAR KATL 120530Z 11011G19KT 4SM RA BR BKN008 OVC047 16/14 A2988 RMK AO2 P0025 T01560139 ...KATL TAF. Issued: 2:30 AM PDT. (in 9 hours). Tomorrow 3:00 AM - 8:00 AM PDT. Vis ... TAFs from nearby airports: KFTY TAF. 10 nm NW. Issued: 10:21 PM PDT. (in 5 ...

Prepared:10/4/23 12:20 PM by: valid for 12 hours. FOR ATC PLANNING PURPOSES. VFR conditions will prevail across ZTL, with high pressure over the airspace. Surface winds will be out of the N-E at 4-8 kts. Flight Hazards: LGT-MOD turbulence above FL310 S/central ZTL. Go to KATL TAF TDA Go to KCLT TAF TDA. ATL Convective Gates CLT Convective Gates.

TAF ; NOTAM ; History ; Airport ; Statistics ... KATL B) 2309121537 E) ATL TWY L BTN TWY L10 AND TWY D CLSD CANCELED September 12, 2023 11:37 - September 15, 2023 11: ...

FM040000 04006KT P6SM FEW030. KFFC 031153Z AUTO 00000KT 9SM CLR 12/12 A3018 RMK AO2 SLP218 T01220117 10139 20122 53011. No TAF found for KFFC. KATL 031152Z 06008KT 10SM CLR 18/14 A3018 RMK AO2 SLP213 T01830139 10200 20183 53012 $. KATL 031122Z 0312/0418 07006KT P6SM SKC. FM031600 09008KT P6SM …taf: katl 251125z 2512/2618 28003kt p6sm bkn250 fm251600 30006kt p6sm bkn200 fm260100 34003kt p6sm few080 bkn150 fm260700 03003kt p6sm sct080 bkn120 Weather observations and forecasts of more than 4000 airports (METAR and TAF reports).Format: Raw Decoded Include METAR. Data at: 1843 UTC 06 Oct 2023. PANC 061753Z 00000KT 10SM FEW003 BKN080 BKN110 05/04 A2968 RMK AO2 SLP052 T00500039 10050 20033 53014. PANC 061735Z 0618/0724 31005KT P6SM VCSH BKN080. FM070000 33007KT P6SM -SHRA OVC050. PAED 061755Z 01009KT 10SM FEW005 SCT080 BKN100 05/03 A2968 RMK AO2A SLP048 T00470030 10047 ...KATL - Atlanta/Hartsfield I, GA, US Issued at 0348 UTC 10 Oct 2023 Updated at 0501 UTC 10 Oct 2023 Potential Impact None Slight Moderate High NOTE: LAMP data beyond the time of the TAF data is denoted as LAMP in Type and colored magenta. Raw TAF KATL 100348Z 1004/1106 23006KT P6SM SKC FM101800 24012KT P6SM SCT250 FM110000 24006KT P6SM SCT250 TAF KATL 121720Z 121818 20012KT 5SM HZ BKN030 FM2000 3SM TSRA OVC025CB FM2200 33015G20KT P6SM BKN015 OVC040 BECMG 0608 02008KT BKN 040 BECMG 1012 00000KT P6SM CLR= and more. Study with Quizlet and memorize flashcards containing terms like When operating under Instrument Flight Rules, a pilot must file an …katl 102152z 22013g22kt 10sm few060 few150 bkn200 bkn250 25/12 a2986 rmk ao2 slp105 t02500122 $ current weather conditions at katl. vfr 21:52:00 10-10-23. ... taf. katl 101952z 1020/1124 21013kt p6sm few050 sct150 sct250 fm110200 24004kt p6sm sct150 bkn250 fm112100 19006kt p6sm -ra bkn050 ovc100.METAR Amsterdam Airport Schiphol - EHAM/AMS. Amsterdam Airport Schiphol is a large airport in North Holland, Netherlands. The airport is located at latitude 52.31488 and longitude 4.75807. The airport has 6 runways: 18L/36R, 18C/36C, 18R/36L, 4/22, 6/24 and 9/27. The ICAO airport code of this field is EHAM.[Controlled] KATL,ATL (Atlanta,Georgia,US) Concrete 3,042m. Information on this website may be inaccurate or outdated and is intended for Flight Simulator navigating or for Pre-flight Training purposes only!TAF KATL 071723Z 0718/0824 33015G25KT P6SM FEW250 FM080000 33013KT P6SM SKC FM080500 33007KT P6SM SKC FM082300 30006KT P6SM SKC= Charlotte Douglas Intl (KCLT) TAF KCLT 071730Z 0718/0824 33010G18KT P6SM FEW050 FM080100 33006KT P6SM SKC FM081600 30007KT P6SM SKC= Washington Dulles Intl (KIAD) …TAF for: KOMA (Omaha/Eppley Fld, NE, US) issued at 0520 UTC 11 Oct 2023: Text: KOMA 110520Z 1106/1206 11009KT P6SM SCT080 : Forecast period: 0600 to 1800 UTC 11 October 2023: Forecast type: FROM: standard forecast or significant change: Winds: from the ESE (110 degrees) at 10 MPH (9 knots; 4.6 m/s) Visibility: 6 or more sm (10+ km) Ceiling:In practice, picking an airport with a TAF as an alternate is much easier. There is no requirement that you actually go to the alternate if you can’t make the destination. And with ADSB-In, you can monitor the weather while you fly, so you have a much better idea of what the weather is doing at your destination. You can divert to an alternate ...NOTE: LAMP data beyond the time of the TAF data is denoted as LAMP in Type and colored magenta. Raw TAF. KAVL 190531Z 1906/2006 VRB02KT 6SM BR FEW250. FM190800 VRB03KT 1SM BR BKN006. TEMPO 1908/1912 1/2SM FG OVC003. FM191300 VRB03KT P6SM FEW060. FM191700 17006KT P6SM FEW060. FM200000 VRB02KT P6SM FEW060. Raw METAR.

Oct 10, 2023 · TAF for: KATL (Atlanta/Hartsfield I, GA, US) issued at 2157 UTC 12 Oct 2023. Text: KATL 122157Z 1222/1324 05015KT P6SM BKN022 OVC030. Forecast period: 2200 UTC 12 October 2023 to 0000 UTC 13 October 2023. Forecast type: FROM: standard forecast or significant change. Find the current and forecasted weather conditions and forecasts for KATL (Atlanta/Hartsfield I, GA, US) from the Aviation Weather Center (AWC). See the METAR …KATL 120752Z 09010KT 8SM -RA BKN007 BKN015 OVC050 16/14 A2980 RMK AO2 SLP084 CIG 006V009 P0004 T01560139 $ Conditions at: KATL (ATLANTA , GA, US) observed 0752 UTC 12 October 2023 Temperature: 15.6°C (60°F) Dewpoint: 13.9°C (57°F) [RH = 90%] Pressure (altimeter): 29.80 inches Hg (1009.2 mb)Data at: 1735 UTC 11 Oct 2023. KATL 111652Z 30004KT 10SM FEW130 BKN160 OVC200 23/12 A2996 RMK AO2 SLP139 VIRGA OHD-ALQDS T02280122 $. KATL 111548Z 1116/1218 25005KT P6SM SCT150 OVC250. FM112000 19005KT P6SM -RA SCT025 OVC090. FM120100 15007KT P6SM -RA SCT015 OVC030.Instagram:https://instagram. portland camera storesuplink csspaul leboutillierapache county parcel viewer data at: 1600 utc 13 oct 2023. katl 131552z 10008kt 2sm -ra br ovc008 17/16 a2995 rmk ao2 slp137 vis s 1 1/2 cig 006v010 p0000 t01720156 $ katl 131554z 1316/1418 08011kt p6sm vcsh bkn008 ovc020 tempo 1316/1319 3sm -radz br ovc006 fm131900 09010kt 6sm -ra br ovc008 fm140400 06006kt 2sm -radz br bkn005 fm140800 32004kt 2sm -radz br bkn004 fm141500 27008kt p6sm bkn015 duke paging webis bakugo confirmed dead Visibility: 10 km. Clear sky. TAF: KATL 070930Z 0710/0812 32009KT P6SM SCT100 FM071100 33010G20KT P6SM SKC FM071500 33012G25KT P6SM SKC FM072200 33013KT P6SM SKC FM080100 33009KT P6SM SKC. Weather observations and forecasts of more than 4000 airports (METAR and TAF reports). local min max calculator NOTE: LAMP data beyond the time of the TAF data is denoted as LAMP in Type and colored magenta. Raw TAF KATL 230333Z 2304/2406 28004KT P6SM FEW090 SCT200 FM231600 30006KT P6SM SCT040 FM240200 33005KT P6SM SCT150 METAR Board Radar Display Forecast Discussion KATL 230333Z 2304/2406 28004KT P6SM FEW090 …TAF for: KATL (Atlanta/Hartsfield I, GA, US) issued at 0332 UTC 15 Jun 2023: Text: KATL 150332Z 1504/1606 20007KT P6SM SCT007 BKN050 : Forecast period: 0400 to 0800 UTC 15 June 2023: Forecast type: FROM: standard forecast or significant change: Winds: from the SSW (200 degrees) at 8 MPH (7 knots; 3.6 m/s)